ELY3004 LFPO-EICK
Flight info
| Callsign | ELY3004 |
|---|---|
| Flight time | N/A |
| Altitude | 40000 |
| Route | LGL UN491 UPALO UN862 SKESO DCT SKERY DCT EMWIP DCT GISOK DCT ELTIG ELTIG1R |
| Aircraft | B772/H-SDE2E3FGHIJ5LORVWXY/LB1D1 |
Departure
| Time | 2026-04-30 22:44 |
|---|---|
| Airport | Paris-Orly Airport (LFPO) |
Arrival
| Time | N/A |
|---|---|
| Airport | Cork International Airport (EICK) |
| Time | Latitude | Longitude | Altitude | Speed | Heading |
|---|---|---|---|---|---|
| 2026-04-30 21:48 | 48.72751 | 2.37181 | 292 ft | 0 kts | 343° |
| 2026-04-30 22:06 | 48.72750 | 2.37181 | 286 ft | 0 kts | 343° |
| 2026-04-30 22:17 | 48.72750 | 2.37182 | 290 ft | 0 kts | 343° |
| 2026-04-30 22:24 | 48.72749 | 2.37182 | 291 ft | 0 kts | 343° |
| 2026-04-30 22:33 | 48.72717 | 2.37214 | 295 ft | 4 kts | 290° |
| 2026-04-30 22:33 | 48.72715 | 2.37264 | 295 ft | 3 kts | 254° |
| 2026-04-30 22:38 | 48.72686 | 2.37198 | 295 ft | 12 kts | 212° |
| 2026-04-30 22:38 | 48.72573 | 2.37044 | 296 ft | 12 kts | 253° |
| 2026-04-30 22:39 | 48.72550 | 2.36922 | 295 ft | 12 kts | 253° |
| 2026-04-30 22:39 | 48.72479 | 2.36556 | 296 ft | 13 kts | 256° |
| 2026-04-30 22:40 | 48.72395 | 2.36086 | 293 ft | 18 kts | 255° |
| 2026-04-30 22:41 | 48.72226 | 2.35609 | 294 ft | 19 kts | 175° |
| 2026-04-30 22:41 | 48.72063 | 2.35701 | 297 ft | 7 kts | 137° |
| 2026-04-30 22:42 | 48.71976 | 2.36020 | 295 ft | 9 kts | 76° |
| 2026-04-30 22:43 | 48.72006 | 2.36197 | 296 ft | 42 kts | 76° |
| 2026-04-30 22:43 | 48.72400 | 2.38360 | 327 ft | 159 kts | 75° |
| 2026-04-30 22:44 | 48.73033 | 2.41751 | 1562 ft | 177 kts | 78° |
| 2026-04-30 22:45 | 48.74234 | 2.50037 | 3124 ft | 226 kts | 94° |
| 2026-04-30 22:45 | 48.74300 | 2.55077 | 3918 ft | 248 kts | 91° |
| 2026-04-30 22:46 | 48.73504 | 2.60090 | 4879 ft | 248 kts | 127° |
| 2026-04-30 22:47 | 48.68082 | 2.59554 | 4958 ft | 239 kts | 251° |
| 2026-04-30 22:47 | 48.68043 | 2.54450 | 5246 ft | 252 kts | 260° |
| 2026-04-30 22:48 | 48.67278 | 2.49232 | 5132 ft | 251 kts | 259° |
| 2026-04-30 22:49 | 48.66601 | 2.41101 | 5121 ft | 255 kts | 261° |
| 2026-04-30 22:49 | 48.64639 | 2.33557 | 5067 ft | 263 kts | 246° |
| 2026-04-30 22:50 | 48.62623 | 2.23205 | 4887 ft | 261 kts | 274° |
| 2026-04-30 22:51 | 48.63256 | 2.17690 | 5159 ft | 269 kts | 277° |
| 2026-04-30 22:51 | 48.63955 | 2.12190 | 5004 ft | 268 kts | 278° |
| 2026-04-30 22:52 | 48.64286 | 2.09458 | 5144 ft | 259 kts | 278° |
| 2026-04-30 22:52 | 48.64902 | 2.03955 | 6264 ft | 264 kts | 278° |
| 2026-04-30 22:53 | 48.65498 | 1.98395 | 7249 ft | 278 kts | 278° |
| 2026-04-30 22:53 | 48.66118 | 1.92546 | 8461 ft | 283 kts | 277° |
| 2026-04-30 22:53 | 48.66438 | 1.89574 | 8895 ft | 290 kts | 277° |
| 2026-04-30 22:54 | 48.67025 | 1.83408 | 9880 ft | 299 kts | 276° |
| 2026-04-30 22:55 | 48.67903 | 1.74097 | 11601 ft | 304 kts | 276° |
| 2026-04-30 22:55 | 48.68491 | 1.67519 | 12364 ft | 336 kts | 277° |
| 2026-04-30 22:56 | 48.69258 | 1.60130 | 13381 ft | 366 kts | 277° |
| 2026-04-30 22:56 | 48.70375 | 1.48480 | 15721 ft | 380 kts | 276° |
| 2026-04-30 22:57 | 48.71138 | 1.40425 | 17165 ft | 391 kts | 276° |
| 2026-04-30 22:57 | 48.71921 | 1.32198 | 18611 ft | 402 kts | 277° |
| 2026-04-30 22:58 | 48.72721 | 1.23717 | 20022 ft | 409 kts | 276° |
| 2026-04-30 22:59 | 48.73921 | 1.10795 | 22074 ft | 421 kts | 276° |
| 2026-04-30 22:59 | 48.75145 | 0.97410 | 24059 ft | 433 kts | 275° |